Time;durP1;ratioP1;P1;durP2;ratioP2;P2;SDS_P1;SDS_P2;PMS_P1;PMS_P2;Temp;Humidity;BMP_temperature;BMP_pressure;BME280_temperature;BME280_humidity;BME280_pressure;Samples;Min_cycle;Max_cycle;Signal;HPM_P1;HPM_P2
2023/07/06 00:01:16;;;;;;;1.30;0.98;;;14.30;99.90;;;;;;5008524;28;20281;-83
2023/07/06 00:03:50;;;;;;;3.15;0.85;;;14.30;99.90;;;;;;5001665;28;20190;-82
2023/07/06 00:06:21;;;;;;;1.50;0.95;;;14.40;99.90;;;;;;5004755;28;20199;-81
2023/07/06 00:08:53;;;;;;;2.20;0.88;;;14.50;99.90;;;;;;5000198;28;20198;-82
2023/07/06 00:11:24;;;;;;;0.90;0.90;;;14.60;99.90;;;;;;5001616;28;20257;-82
2023/07/06 00:13:55;;;;;;;2.97;1.35;;;14.70;99.90;;;;;;5010895;28;20282;-82
2023/07/06 00:16:27;;;;;;;2.80;0.93;;;14.90;99.90;;;;;;5009391;28;20283;-82
2023/07/06 00:19:00;;;;;;;1.55;1.00;;;15.00;99.90;;;;;;5011085;28;20227;-82
2023/07/06 00:21:32;;;;;;;1.27;0.90;;;15.20;99.90;;;;;;5004440;28;20741;-82
2023/07/06 00:24:03;;;;;;;1.92;0.85;;;15.30;99.90;;;;;;4993849;28;20245;-82
2023/07/06 00:26:34;;;;;;;1.67;0.93;;;15.40;99.90;;;;;;5010653;28;20210;-82
2023/07/06 00:29:05;;;;;;;1.00;0.90;;;15.40;99.90;;;;;;5010504;28;20198;-82
2023/07/06 00:31:50;;;;;;;2.45;1.10;;;15.40;99.90;;;;;;5010823;28;20676;-82
2023/07/06 00:34:23;;;;;;;1.40;0.90;;;15.50;99.90;;;;;;5010872;28;20658;-82
2023/07/06 00:36:54;;;;;;;1.75;1.00;;;15.60;99.90;;;;;;5008762;28;20201;-82
2023/07/06 00:39:26;;;;;;;2.03;1.20;;;15.70;99.90;;;;;;5006520;28;20681;-82
2023/07/06 00:41:58;;;;;;;3.30;1.13;;;15.70;99.90;;;;;;5010656;28;20281;-82
2023/07/06 00:44:50;;;;;;;3.80;1.30;;;15.80;99.90;;;;;;5004870;28;20278;-82
2023/07/06 00:47:27;;;;;;;2.67;1.20;;;15.80;99.90;;;;;;5007297;28;20255;-82
2023/07/06 00:50:06;;;;;;;1.65;1.13;;;15.80;99.90;;;;;;5006024;28;20196;-82
2023/07/06 00:52:40;;;;;;;2.28;1.20;;;15.90;99.90;;;;;;4991787;28;20236;-82
2023/07/06 00:55:15;;;;;;;1.35;1.00;;;16.00;99.90;;;;;;4996358;28;20205;-82
2023/07/06 00:57:51;;;;;;;1.80;1.10;;;16.00;99.90;;;;;;4995795;28;20230;-83
2023/07/06 01:00:23;;;;;;;1.35;1.08;;;16.00;99.90;;;;;;4997767;28;20697;-83
2023/07/06 01:02:56;;;;;;;2.67;0.90;;;16.00;99.90;;;;;;5009589;28;20206;-83
2023/07/06 01:05:31;;;;;;;4.82;1.00;;;16.10;99.90;;;;;;4995409;28;20210;-87
2023/07/06 01:08:11;;;;;;;2.13;0.98;;;16.20;99.90;;;;;;4996670;28;20208;-83
2023/07/06 01:10:43;;;;;;;1.63;1.00;;;16.30;99.90;;;;;;5010324;28;20218;-83
2023/07/06 01:13:15;;;;;;;1.88;0.90;;;16.30;99.90;;;;;;5007848;28;20218;-84
2023/07/06 01:15:51;;;;;;;1.15;0.85;;;16.30;99.90;;;;;;4997999;28;20230;-83
2023/07/06 01:18:28;;;;;;;0.95;0.85;;;16.50;99.90;;;;;;4990437;28;20792;-84
2023/07/06 01:21:09;;;;;;;1.88;1.20;;;16.50;99.90;;;;;;4990959;28;20209;-84
2023/07/06 01:24:20;;;;;;;3.97;1.45;;;16.40;99.90;;;;;;4990728;28;20210;-84
2023/07/06 01:27:10;;;;;;;2.63;1.23;;;16.20;99.90;;;;;;5005575;28;20285;-84
2023/07/06 01:30:16;;;;;;;2.40;0.75;;;16.30;99.90;;;;;;5003533;28;20203;-84
2023/07/06 01:32:55;;;;;;;0.60;0.60;;;16.40;99.90;;;;;;4991342;28;20209;-84
2023/07/06 01:35:32;;;;;;;2.58;0.90;;;16.50;99.90;;;;;;4990824;28;20551;-84
2023/07/06 01:38:04;;;;;;;3.70;0.70;;;16.60;99.90;;;;;;4991149;28;20230;-84
2023/07/06 01:40:36;;;;;;;1.67;0.60;;;16.70;99.90;;;;;;4994376;28;20201;-84
2023/07/06 01:43:07;;;;;;;0.60;0.38;;;16.80;99.90;;;;;;4998627;28;20605;-84
2023/07/06 01:45:38;;;;;;;1.23;0.45;;;16.70;99.90;;;;;;5013785;28;20196;-83
2023/07/06 01:48:13;;;;;;;1.50;0.50;;;16.70;99.90;;;;;;4995214;28;20694;-83
2023/07/06 01:50:49;;;;;;;0.40;0.40;;;16.90;99.90;;;;;;4994505;28;20198;-82
2023/07/06 01:53:31;;;;;;;1.27;0.50;;;17.00;99.90;;;;;;4994548;28;20649;-82
2023/07/06 01:56:07;;;;;;;2.95;0.60;;;17.00;99.90;;;;;;4993926;28;20198;-82
2023/07/06 01:58:47;;;;;;;1.85;0.43;;;16.90;99.90;;;;;;4994557;28;20230;-82
2023/07/06 02:01:24;;;;;;;1.52;0.52;;;17.00;99.90;;;;;;5012877;28;20676;-82
2023/07/06 02:03:58;;;;;;;0.70;0.50;;;16.90;99.90;;;;;;5004833;28;20207;-82
2023/07/06 02:06:30;;;;;;;0.73;0.55;;;17.00;99.90;;;;;;4993630;28;20198;-83
2023/07/06 02:09:02;;;;;;;1.13;0.60;;;17.10;99.90;;;;;;4994914;28;20262;-83
2023/07/06 02:11:35;;;;;;;1.23;0.63;;;17.10;99.90;;;;;;4994056;28;20183;-83
2023/07/06 02:14:06;;;;;;;1.45;0.60;;;17.20;99.90;;;;;;4993036;28;20237;-83
2023/07/06 02:16:40;;;;;;;0.60;0.40;;;17.20;99.90;;;;;;5000397;28;20198;-83
2023/07/06 02:19:13;;;;;;;0.75;0.40;;;17.20;99.90;;;;;;5013724;28;20233;-83
2023/07/06 02:21:44;;;;;;;0.85;0.50;;;17.30;99.90;;;;;;4998190;28;20211;-84
2023/07/06 02:24:15;;;;;;;0.52;0.50;;;17.30;99.90;;;;;;4994081;28;20222;-83
2023/07/06 02:26:48;;;;;;;0.68;0.47;;;17.40;99.90;;;;;;4994010;28;20285;-83
2023/07/06 02:29:19;;;;;;;1.98;0.60;;;17.40;99.90;;;;;;4993982;28;20199;-83
2023/07/06 02:31:51;;;;;;;1.48;0.35;;;17.40;99.90;;;;;;4998508;28;20198;-81
2023/07/06 02:34:24;;;;;;;1.75;0.70;;;17.40;99.90;;;;;;5012989;28;20673;-82
2023/07/06 02:36:56;;;;;;;0.38;0.38;;;17.50;99.90;;;;;;5012411;28;20202;-82
2023/07/06 02:39:28;;;;;;;2.92;0.82;;;17.50;99.90;;;;;;4993454;28;20704;-82
2023/07/06 02:41:59;;;;;;;0.60;0.40;;;17.60;99.90;;;;;;4993279;28;20199;-82
2023/07/06 02:44:30;;;;;;;1.35;0.80;;;17.70;99.90;;;;;;4993310;28;20195;-83
2023/07/06 02:47:01;;;;;;;1.17;0.40;;;17.80;99.90;;;;;;4993019;28;20572;-82
2023/07/06 02:49:35;;;;;;;0.68;0.50;;;17.80;99.90;;;;;;5007465;28;20208;-83
2023/07/06 02:52:06;;;;;;;0.50;0.35;;;17.80;99.90;;;;;;5012057;28;20705;-82
2023/07/06 02:54:37;;;;;;;1.77;0.60;;;17.90;99.90;;;;;;5006190;28;20206;-84
2023/07/06 02:57:09;;;;;;;0.75;0.50;;;17.80;99.90;;;;;;4992552;28;20210;-82
2023/07/06 02:59:40;;;;;;;1.63;0.40;;;17.80;99.90;;;;;;4993219;28;20230;-82
2023/07/06 03:02:12;;;;;;;5.00;0.50;;;17.80;99.90;;;;;;5008208;28;20202;-81
2023/07/06 03:04:45;;;;;;;0.40;0.35;;;18.00;99.90;;;;;;5013498;28;20205;-82
2023/07/06 03:07:18;;;;;;;0.55;0.32;;;18.00;99.90;;;;;;5012699;28;20205;-82
2023/07/06 03:09:49;;;;;;;2.22;0.40;;;18.00;99.90;;;;;;5012597;28;20681;-82
2023/07/06 03:12:23;;;;;;;0.60;0.50;;;18.00;99.90;;;;;;5007713;28;20212;-83
2023/07/06 03:14:55;;;;;;;0.30;0.30;;;17.90;99.90;;;;;;5012332;28;20198;-84
2023/07/06 03:17:26;;;;;;;0.88;0.50;;;17.90;99.90;;;;;;5011983;28;20257;-81
2023/07/06 03:19:59;;;;;;;0.47;0.40;;;18.00;99.90;;;;;;5013005;28;20226;-81
2023/07/06 03:22:31;;;;;;;0.40;0.40;;;18.00;99.90;;;;;;5011802;28;20194;-82
2023/07/06 03:25:02;;;;;;;0.40;0.40;;;18.00;99.90;;;;;;5012517;28;20194;-81
2023/07/06 03:27:33;;;;;;;0.68;0.40;;;18.10;99.90;;;;;;5012324;28;20201;-82
2023/07/06 03:30:07;;;;;;;0.70;0.50;;;18.10;99.90;;;;;;4993658;28;20207;-82
2023/07/06 03:32:38;;;;;;;0.90;0.57;;;18.20;99.90;;;;;;5004683;28;20208;-81
2023/07/06 03:35:13;;;;;;;2.08;0.60;;;18.10;99.90;;;;;;5011650;28;20695;-81
2023/07/06 03:37:45;;;;;;;1.10;0.45;;;18.00;99.90;;;;;;5011940;28;20577;-81
2023/07/06 03:40:17;;;;;;;0.90;0.45;;;18.00;99.90;;;;;;5010666;28;20237;-82
2023/07/06 03:42:49;;;;;;;1.85;0.40;;;18.00;99.90;;;;;;5010699;28;20206;-82
2023/07/06 03:45:21;;;;;;;0.70;0.55;;;18.10;99.90;;;;;;5007843;28;20209;-82
2023/07/06 03:47:53;;;;;;;2.35;0.50;;;17.90;99.80;;;;;;4992030;28;20198;-82
2023/07/06 03:50:26;;;;;;;1.05;0.40;;;17.90;99.90;;;;;;4991930;28;20203;-83
2023/07/06 03:52:58;;;;;;;0.50;0.40;;;18.00;99.90;;;;;;4991659;28;20260;-82
2023/07/06 03:55:29;;;;;;;1.30;0.47;;;18.10;99.90;;;;;;4991874;28;20700;-83
2023/07/06 03:58:01;;;;;;;0.82;0.40;;;18.10;99.90;;;;;;4991776;28;20198;-83
2023/07/06 04:00:33;;;;;;;1.40;0.82;;;18.10;99.90;;;;;;5011406;28;20305;-82
2023/07/06 04:03:06;;;;;;;1.02;0.50;;;18.20;99.90;;;;;;4999156;28;20214;-82
2023/07/06 04:05:44;;;;;;;0.50;0.50;;;18.20;99.90;;;;;;4991923;28;20594;-82
2023/07/06 04:08:18;;;;;;;0.85;0.60;;;18.30;99.90;;;;;;5003510;28;20277;-82
2023/07/06 04:10:49;;;;;;;0.50;0.50;;;18.30;99.70;;;;;;5012747;28;20201;-82
2023/07/06 04:13:23;;;;;;;1.55;0.60;;;18.30;99.80;;;;;;5011271;28;20198;-83
2023/07/06 04:15:54;;;;;;;0.93;0.68;;;18.30;99.40;;;;;;5011169;28;20286;-82
2023/07/06 04:18:25;;;;;;;2.88;0.73;;;18.20;99.60;;;;;;5009740;28;20228;-82
2023/07/06 04:21:00;;;;;;;0.60;0.50;;;18.20;98.90;;;;;;4993852;28;20692;-82
2023/07/06 04:23:31;;;;;;;0.68;0.40;;;18.10;99.90;;;;;;4991454;28;20202;-82
2023/07/06 04:26:02;;;;;;;1.35;0.45;;;18.00;99.90;;;;;;4991042;28;20213;-82
2023/07/06 04:28:33;;;;;;;0.40;0.40;;;18.00;99.90;;;;;;4991278;28;20597;-82
2023/07/06 04:31:05;;;;;;;1.33;0.50;;;17.90;99.90;;;;;;4991437;28;20209;-82
2023/07/06 04:33:37;;;;;;;0.52;0.50;;;17.80;99.90;;;;;;4991264;28;20203;-82
2023/07/06 04:36:10;;;;;;;0.40;0.40;;;17.70;99.90;;;;;;5009160;28;20283;-83
2023/07/06 04:38:42;;;;;;;0.93;0.50;;;17.70;99.90;;;;;;5010666;28;20233;-81
2023/07/06 04:41:14;;;;;;;1.77;0.75;;;17.70;99.90;;;;;;5010612;28;20677;-82
2023/07/06 04:43:45;;;;;;;0.50;0.50;;;17.70;99.90;;;;;;5010969;28;20202;-81
2023/07/06 04:46:17;;;;;;;0.50;0.45;;;17.70;99.90;;;;;;5010797;28;20202;-81
2023/07/06 04:48:48;;;;;;;1.42;0.70;;;17.70;99.90;;;;;;5010663;28;20665;-82
2023/07/06 04:51:21;;;;;;;4.13;0.63;;;17.70;99.90;;;;;;5010150;28;20229;-82
2023/07/06 04:53:53;;;;;;;1.50;0.43;;;17.60;99.90;;;;;;4972364;28;20207;-82
2023/07/06 04:56:24;;;;;;;0.80;0.50;;;17.60;99.90;;;;;;4973167;28;20234;-82
2023/07/06 04:58:56;;;;;;;0.52;0.50;;;17.60;99.90;;;;;;4971712;28;20698;-82
2023/07/06 05:01:27;;;;;;;0.32;0.30;;;17.60;99.90;;;;;;4967772;28;20219;-82
2023/07/06 05:03:59;;;;;;;0.65;0.40;;;17.60;99.90;;;;;;4960429;28;20215;-82
2023/07/06 05:06:32;;;;;;;0.55;0.40;;;17.60;99.90;;;;;;4968029;28;20196;-82
2023/07/06 05:09:04;;;;;;;0.20;0.20;;;17.60;99.40;;;;;;4970816;28;20199;-82
2023/07/06 05:11:36;;;;;;;0.75;0.43;;;17.60;98.60;;;;;;4970361;28;20199;-82
2023/07/06 05:14:07;;;;;;;1.15;0.30;;;17.60;98.80;;;;;;4973969;28;20205;-82
2023/07/06 05:16:39;;;;;;;0.43;0.30;;;17.60;98.70;;;;;;4975409;28;20202;-82
2023/07/06 05:19:10;;;;;;;0.73;0.30;;;17.50;98.90;;;;;;4975233;28;20618;-82
2023/07/06 05:21:43;;;;;;;0.25;0.25;;;17.60;99.20;;;;;;4975483;28;20199;-83
2023/07/06 05:24:14;;;;;;;0.80;0.30;;;17.50;99.60;;;;;;4975222;28;20203;-83
2023/07/06 05:26:45;;;;;;;3.83;0.30;;;17.50;98.80;;;;;;4974461;28;20543;-82
2023/07/06 05:29:16;;;;;;;1.58;0.30;;;17.50;98.80;;;;;;4969599;28;20210;-82
2023/07/06 05:31:49;;;;;;;0.30;0.25;;;17.50;97.90;;;;;;4965553;28;20203;-83
2023/07/06 05:34:20;;;;;;;0.30;0.30;;;17.50;97.20;;;;;;4975470;28;20690;-83
2023/07/06 05:36:53;;;;;;;0.28;0.20;;;17.40;96.70;;;;;;4974378;28;20662;-84
2023/07/06 05:39:24;;;;;;;1.85;0.45;;;17.40;97.10;;;;;;4974854;28;20211;-83
2023/07/06 05:41:55;;;;;;;0.30;0.30;;;17.30;97.10;;;;;;4964029;28;20652;-83
2023/07/06 05:44:30;;;;;;;1.02;0.50;;;17.30;97.20;;;;;;4974397;28;20207;-82
2023/07/06 05:47:01;;;;;;;0.50;0.40;;;17.20;97.50;;;;;;4967344;28;20192;-82
2023/07/06 05:49:32;;;;;;;0.30;0.30;;;17.20;97.40;;;;;;4958660;28;20199;-82
2023/07/06 05:52:06;;;;;;;1.38;0.40;;;17.10;96.60;;;;;;4976472;28;20222;-82
2023/07/06 05:54:37;;;;;;;1.27;0.20;;;17.10;97.10;;;;;;4994135;28;20205;-83
2023/07/06 05:57:08;;;;;;;0.73;0.28;;;17.10;97.00;;;;;;5007612;28;20572;-83
2023/07/06 05:59:41;;;;;;;0.50;0.40;;;17.00;97.30;;;;;;5013467;28;20615;-82
2023/07/06 06:02:13;;;;;;;2.47;0.50;;;16.90;96.70;;;;;;5013226;28;20218;-83
2023/07/06 06:04:44;;;;;;;1.00;0.30;;;16.90;96.10;;;;;;5013225;28;20202;-83
2023/07/06 06:07:19;;;;;;;0.55;0.30;;;17.00;96.00;;;;;;5011879;28;20198;-82
2023/07/06 06:09:50;;;;;;;0.15;0.15;;;17.00;96.10;;;;;;5013074;28;20225;-82
2023/07/06 06:12:22;;;;;;;1.63;0.30;;;16.90;96.10;;;;;;5013496;28;20665;-82
2023/07/06 06:14:53;;;;;;;1.73;0.20;;;16.90;96.30;;;;;;5013558;28;20248;-82
2023/07/06 06:17:26;;;;;;;0.43;0.30;;;16.90;95.80;;;;;;4993569;28;20269;-83
2023/07/06 06:19:58;;;;;;;1.75;0.40;;;16.80;96.10;;;;;;5009746;28;20240;-83
2023/07/06 06:22:31;;;;;;;0.98;0.32;;;16.80;96.10;;;;;;5013202;28;20205;-84
2023/07/06 06:25:02;;;;;;;0.30;0.30;;;17.00;96.00;;;;;;5009945;28;20386;-84
2023/07/06 06:27:33;;;;;;;0.65;0.32;;;17.20;96.00;;;;;;5013024;28;20643;-85
2023/07/06 06:30:05;;;;;;;0.32;0.32;;;17.30;95.70;;;;;;5013120;28;20588;-84
2023/07/06 06:32:37;;;;;;;0.98;0.40;;;17.30;95.00;;;;;;4994965;28;20618;-85
2023/07/06 06:35:23;;;;;;;1.52;0.30;;;17.30;95.10;;;;;;5000647;28;20238;-84
2023/07/06 06:37:57;;;;;;;0.50;0.40;;;17.30;94.80;;;;;;5011438;28;20204;-84
2023/07/06 06:40:30;;;;;;;0.68;0.63;;;17.40;94.10;;;;;;5012671;28;20586;-85
2023/07/06 06:43:03;;;;;;;0.73;0.60;;;17.30;94.00;;;;;;5011839;28;20240;-85
2023/07/06 06:45:34;;;;;;;0.40;0.40;;;17.20;94.00;;;;;;5001325;28;20595;-86
2023/07/06 06:48:07;;;;;;;0.40;0.40;;;17.20;94.30;;;;;;4998430;28;20198;-86
2023/07/06 06:50:38;;;;;;;1.77;0.50;;;17.10;93.10;;;;;;5001055;28;20228;-85
2023/07/06 06:53:11;;;;;;;0.63;0.20;;;17.10;92.60;;;;;;5011799;28;20242;-86
2023/07/06 06:55:42;;;;;;;0.52;0.38;;;17.10;92.70;;;;;;5007496;28;20201;-86
2023/07/06 06:58:15;;;;;;;0.70;0.55;;;17.00;92.60;;;;;;5002007;28;20256;-85
2023/07/06 07:00:46;;;;;;;0.52;0.40;;;16.90;92.10;;;;;;5012574;28;20638;-86
2023/07/06 07:03:17;;;;;;;1.02;0.85;;;16.90;92.50;;;;;;5004676;28;20190;-87
2023/07/06 07:05:48;;;;;;;1.48;0.90;;;16.80;92.10;;;;;;4993272;28;20195;-86
2023/07/06 07:08:21;;;;;;;0.73;0.57;;;16.70;92.40;;;;;;4996499;28;20194;-87
2023/07/06 07:10:57;;;;;;;1.58;0.80;;;16.60;92.50;;;;;;5011915;28;20198;-87
2023/07/06 07:13:28;;;;;;;1.60;0.70;;;16.50;92.80;;;;;;5010576;28;20220;-86
2023/07/06 07:15:59;;;;;;;0.90;0.80;;;16.50;93.30;;;;;;5012115;28;20194;-87
2023/07/06 07:18:30;;;;;;;2.50;2.17;;;16.50;93.70;;;;;;5012798;28;20186;-86
2023/07/06 07:21:04;;;;;;;4.90;1.10;;;16.50;94.20;;;;;;5012374;28;20233;-87
2023/07/06 07:23:42;;;;;;;1.25;0.80;;;16.40;93.80;;;;;;5010466;28;20198;-86
2023/07/06 07:26:15;;;;;;;0.85;0.60;;;16.40;94.00;;;;;;5010808;28;20722;-86
2023/07/06 07:28:47;;;;;;;1.05;0.90;;;16.40;94.00;;;;;;5011344;28;20237;-86
2023/07/06 07:31:19;;;;;;;0.75;0.60;;;16.40;94.10;;;;;;5012396;28;20205;-87
2023/07/06 07:33:51;;;;;;;1.33;0.80;;;16.40;93.90;;;;;;5007722;28;20197;-86
2023/07/06 07:36:23;;;;;;;1.65;1.10;;;16.30;94.80;;;;;;5007402;28;20724;-84
2023/07/06 07:38:56;;;;;;;1.70;1.60;;;16.30;94.60;;;;;;5011749;28;20675;-85
2023/07/06 07:41:27;;;;;;;1.90;1.60;;;16.20;95.40;;;;;;5004760;28;20607;-85
2023/07/06 07:44:00;;;;;;;1.77;1.65;;;16.30;95.50;;;;;;5002224;28;20193;-85
2023/07/06 07:46:32;;;;;;;2.15;1.40;;;16.20;96.00;;;;;;5006151;28;20269;-86
2023/07/06 07:49:13;;;;;;;;;;;;;;;;;;;;;
2023/07/06 07:51:44;;;;;;;2.17;1.60;;;16.10;96.90;;;;;;4996981;28;20244;-85
2023/07/06 07:54:17;;;;;;;2.03;1.30;;;16.20;96.80;;;;;;5004154;28;20192;-85
2023/07/06 07:56:53;;;;;;;1.55;1.20;;;16.10;96.90;;;;;;4991789;28;20769;-85
2023/07/06 07:59:25;;;;;;;3.00;1.77;;;16.10;96.90;;;;;;4992147;28;20282;-84
2023/07/06 08:01:57;;;;;;;1.83;1.40;;;16.00;96.50;;;;;;4992500;28;20274;-85
2023/07/06 08:04:28;;;;;;;3.05;1.50;;;15.90;96.60;;;;;;4993142;28;20811;-84
2023/07/06 08:06:59;;;;;;;3.47;2.08;;;15.90;97.20;;;;;;5011845;28;20658;-86
2023/07/06 08:09:32;;;;;;;1.95;1.60;;;15.90;97.00;;;;;;5011281;28;20213;-86
2023/07/06 08:12:03;;;;;;;2.25;1.50;;;15.90;97.80;;;;;;5011885;28;20730;-86
2023/07/06 08:14:41;;;;;;;3.53;1.92;;;15.90;97.40;;;;;;5011605;28;20198;-85
2023/07/06 08:17:14;;;;;;;4.80;3.70;;;15.80;97.60;;;;;;5010317;28;20198;-84
2023/07/06 08:19:45;;;;;;;2.75;2.08;;;15.90;97.50;;;;;;5009480;28;20725;-84
2023/07/06 08:22:17;;;;;;;4.80;2.22;;;15.70;97.80;;;;;;5010958;28;20256;-83
2023/07/06 08:24:50;;;;;;;4.05;2.70;;;15.80;97.40;;;;;;5011199;28;20267;-84
2023/07/06 08:27:21;;;;;;;5.60;1.77;;;15.80;97.50;;;;;;5010256;28;20284;-84
2023/07/06 08:29:53;;;;;;;2.35;1.48;;;15.80;97.60;;;;;;5010286;28;20198;-84
2023/07/06 08:32:24;;;;;;;3.03;1.80;;;15.80;97.70;;;;;;5010988;28;20692;-84
2023/07/06 08:34:55;;;;;;;2.65;1.90;;;15.70;98.20;;;;;;5010184;28;20201;-83
2023/07/06 08:37:27;;;;;;;3.05;1.90;;;15.70;99.00;;;;;;5011142;28;20198;-83
2023/07/06 08:40:02;;;;;;;3.38;1.90;;;15.70;99.60;;;;;;4997340;28;20642;-83
2023/07/06 08:42:34;;;;;;;2.53;1.67;;;15.60;99.50;;;;;;5004520;28;20189;-83
2023/07/06 08:45:05;;;;;;;2.50;1.75;;;15.60;99.90;;;;;;5007341;28;20281;-83
2023/07/06 08:47:37;;;;;;;2.97;2.67;;;15.60;99.90;;;;;;5010430;28;20207;-83
2023/07/06 08:50:11;;;;;;;2.67;1.90;;;15.60;99.90;;;;;;5010480;28;20651;-84
2023/07/06 08:52:42;;;;;;;2.75;2.33;;;15.60;99.90;;;;;;5007901;28;20606;-84
2023/07/06 08:55:18;;;;;;;2.55;1.80;;;15.60;99.90;;;;;;5003982;28;20676;-83
2023/07/06 08:57:50;;;;;;;2.90;2.00;;;15.60;99.90;;;;;;5010539;28;20198;-84
2023/07/06 09:00:25;;;;;;;2.70;1.80;;;15.60;99.90;;;;;;5008038;28;20593;-85
2023/07/06 09:02:58;;;;;;;4.10;1.80;;;15.60;99.90;;;;;;5005634;28;20245;-84
2023/07/06 09:05:33;;;;;;;10.10;3.85;;;15.60;99.90;;;;;;4991278;28;20674;-85
2023/07/06 09:08:04;;;;;;;12.43;4.10;;;15.60;99.90;;;;;;4991965;28;20198;-86
2023/07/06 09:10:38;;;;;;;7.93;3.25;;;15.50;99.90;;;;;;4991184;28;20191;-87
2023/07/06 09:13:24;;;;;;;6.05;2.47;;;15.50;99.90;;;;;;5001401;28;20204;-85
2023/07/06 09:16:00;;;;;;;2.28;1.90;;;15.40;99.90;;;;;;5009608;28;20190;-85
2023/07/06 09:18:33;;;;;;;3.28;1.60;;;15.40;99.90;;;;;;5009795;28;20190;-86
2023/07/06 09:21:05;;;;;;;2.15;1.67;;;15.40;99.90;;;;;;5006172;28;20222;-87
2023/07/06 09:23:36;;;;;;;2.33;1.63;;;15.40;99.90;;;;;;5003772;28;20676;-85
2023/07/06 09:26:19;;;;;;;2.22;2.03;;;15.40;99.90;;;;;;5008579;28;20194;-85
2023/07/06 09:28:51;;;;;;;3.75;3.10;;;15.40;99.90;;;;;;5010885;28;20193;-83
2023/07/06 09:31:24;;;;;;;3.67;3.28;;;15.50;99.90;;;;;;5010432;28;20534;-84
2023/07/06 09:33:58;;;;;;;4.35;3.97;;;15.50;99.90;;;;;;5007979;28;20217;-85
2023/07/06 09:36:29;;;;;;;4.00;3.60;;;15.40;99.90;;;;;;4990400;28;20205;-84
2023/07/06 09:39:05;;;;;;;3.38;2.50;;;15.40;99.90;;;;;;4990861;28;20199;-84
2023/07/06 09:41:45;;;;;;;2.63;1.63;;;15.40;99.90;;;;;;4990205;28;20234;-84
2023/07/06 09:44:19;;;;;;;2.05;1.70;;;15.40;99.90;;;;;;5009438;28;20190;-85
2023/07/06 09:46:50;;;;;;;4.25;3.53;;;15.30;99.90;;;;;;5001766;28;20281;-87
2023/07/06 09:49:23;;;;;;;4.43;3.40;;;15.30;99.90;;;;;;5000840;28;20653;-86
2023/07/06 09:52:01;;;;;;;3.42;2.30;;;15.30;99.90;;;;;;4990860;28;20598;-86
2023/07/06 09:54:39;;;;;;;3.92;2.35;;;15.20;99.90;;;;;;4993159;28;20201;-86
2023/07/06 09:57:17;;;;;;;2.10;1.73;;;15.20;99.90;;;;;;4990307;28;20205;-86
2023/07/06 09:59:52;;;;;;;2.45;1.90;;;15.20;99.90;;;;;;5000101;28;20664;-86
2023/07/06 10:02:33;;;;;;;3.22;2.92;;;15.10;99.90;;;;;;5013881;28;20233;-86
2023/07/06 10:05:16;;;;;;;2.20;2.00;;;15.10;99.90;;;;;;5013489;28;20201;-86
2023/07/06 10:07:54;;;;;;;4.15;3.50;;;15.10;99.90;;;;;;5020643;28;20198;-85
2023/07/06 10:10:54;;;;;;;6.50;5.32;;;15.00;99.90;;;;;;5013349;28;20205;-86
2023/07/06 10:13:38;;;;;;;6.47;4.40;;;15.00;99.90;;;;;;5009149;28;20264;-84
2023/07/06 10:16:19;;;;;;;2.45;2.05;;;15.00;99.90;;;;;;5011324;28;20212;-86
2023/07/06 10:18:54;;;;;;;2.60;1.90;;;15.00;99.90;;;;;;5009398;28;20229;-85
2023/07/06 10:21:28;;;;;;;2.22;1.20;;;15.00;99.90;;;;;;5004453;28;20236;-85
2023/07/06 10:24:08;;;;;;;1.73;1.25;;;15.00;99.90;;;;;;4994216;28;20201;-83
2023/07/06 10:26:47;;;;;;;1.60;1.30;;;14.90;99.90;;;;;;5014153;28;20259;-86
2023/07/06 10:29:30;;;;;;;1.23;1.13;;;14.90;99.90;;;;;;5008879;28;20688;-85
2023/07/06 10:32:06;;;;;;;1.10;1.00;;;14.90;99.90;;;;;;5012768;28;20206;-84
2023/07/06 10:34:43;;;;;;;1.42;0.90;;;14.80;99.90;;;;;;5012976;28;20573;-86
2023/07/06 10:37:18;;;;;;;0.75;0.75;;;14.80;99.90;;;;;;5006142;28;20194;-88
2023/07/06 10:40:06;;;;;;;0.80;0.80;;;14.80;99.90;;;;;;5010919;28;20201;-88
2023/07/06 10:42:43;;;;;;;0.50;0.50;;;14.70;99.90;;;;;;5011740;28;20603;-87
2023/07/06 10:45:42;;;;;;;0.70;0.70;;;14.70;99.90;;;;;;5013341;28;20201;-83
2023/07/06 10:48:18;;;;;;;0.70;0.63;;;14.70;99.90;;;;;;5012284;28;20679;-86
2023/07/06 10:50:54;;;;;;;0.90;0.80;;;14.80;99.90;;;;;;5005994;28;20729;-86
2023/07/06 10:53:37;;;;;;;0.82;0.65;;;14.80;99.90;;;;;;4993830;28;20284;-87
2023/07/06 10:56:20;;;;;;;0.70;0.70;;;14.70;99.90;;;;;;4996977;28;20201;-87
2023/07/06 10:58:57;;;;;;;0.60;0.60;;;14.60;99.90;;;;;;5013982;28;20194;-85
2023/07/06 11:01:34;;;;;;;1.05;1.00;;;14.60;99.90;;;;;;5013350;28;20259;-86
2023/07/06 11:04:26;;;;;;;0.63;0.63;;;14.60;99.90;;;;;;5012575;28;20612;-85
2023/07/06 11:06:57;;;;;;;0.40;0.40;;;14.60;99.90;;;;;;5011576;28;20280;-85
2023/07/06 11:09:30;;;;;;;0.60;0.60;;;14.60;99.90;;;;;;4994290;28;20239;-85
2023/07/06 11:12:18;;;;;;;0.70;0.70;;;14.70;99.90;;;;;;5010112;28;20660;-84
2023/07/06 11:14:51;;;;;;;0.95;0.60;;;14.70;99.90;;;;;;5009026;28;20202;-86
2023/07/06 11:17:33;;;;;;;0.93;0.60;;;14.70;99.90;;;;;;5012992;28;20285;-85
2023/07/06 11:20:13;;;;;;;0.60;0.60;;;14.60;99.90;;;;;;5000430;28;20194;-86
2023/07/06 11:22:46;;;;;;;0.75;0.55;;;14.60;99.90;;;;;;4996275;28;20222;-84
2023/07/06 11:25:19;;;;;;;1.35;0.63;;;14.60;99.90;;;;;;5005764;28;20256;-84
2023/07/06 11:27:53;;;;;;;0.60;0.60;;;14.60;99.90;;;;;;5002954;28;20689;-85
2023/07/06 11:30:31;;;;;;;0.75;0.60;;;14.60;99.90;;;;;;5006528;28;20260;-86
2023/07/06 11:33:13;;;;;;;0.50;0.50;;;14.60;99.90;;;;;;4997111;28;20202;-86
2023/07/06 11:36:06;;;;;;;0.57;0.52;;;14.60;99.90;;;;;;4992284;28;20194;-86
2023/07/06 11:39:04;;;;;;;0.50;0.50;;;14.60;99.90;;;;;;4999778;28;20202;-84
2023/07/06 11:41:45;;;;;;;0.80;0.80;;;14.60;99.90;;;;;;5005677;28;20698;-87
2023/07/06 11:44:32;;;;;;;1.20;0.82;;;14.50;99.90;;;;;;4994216;28;20210;-85
2023/07/06 11:47:25;;;;;;;0.60;0.60;;;14.50;99.90;;;;;;5011922;28;20194;-87
2023/07/06 11:50:01;;;;;;;0.80;0.70;;;14.40;99.90;;;;;;5012412;28;20671;-84
2023/07/06 11:52:39;;;;;;;0.70;0.70;;;14.40;99.90;;;;;;5011670;28;20727;-86
2023/07/06 11:55:29;;;;;;;0.77;0.77;;;14.30;99.90;;;;;;5011489;28;20201;-84
2023/07/06 11:58:18;;;;;;;0.63;0.60;;;14.20;99.90;;;;;;5009686;28;20205;-84
2023/07/06 12:00:54;;;;;;;0.55;0.55;;;14.20;99.90;;;;;;5006979;28;20253;-85
2023/07/06 12:03:26;;;;;;;0.50;0.50;;;14.20;99.90;;;;;;5012013;28;20197;-85
2023/07/06 12:06:01;;;;;;;0.60;0.60;;;14.10;99.90;;;;;;4995497;28;20210;-85
2023/07/06 12:08:36;;;;;;;0.60;0.60;;;14.10;99.90;;;;;;4991965;28;20599;-84
2023/07/06 12:11:09;;;;;;;1.42;0.60;;;14.10;99.90;;;;;;5004002;28;20210;-84
2023/07/06 12:13:43;;;;;;;0.57;0.50;;;14.00;99.90;;;;;;5006581;28;20210;-86
2023/07/06 12:16:19;;;;;;;0.77;0.65;;;14.00;99.90;;;;;;5001240;28;20202;-87
2023/07/06 12:18:55;;;;;;;0.50;0.50;;;14.00;99.90;;;;;;5011054;28;20223;-87
2023/07/06 12:21:31;;;;;;;0.68;0.68;;;14.00;99.90;;;;;;5012062;28;20244;-85
2023/07/06 12:24:03;;;;;;;1.40;0.68;;;14.00;99.90;;;;;;4995767;28;20256;-85
2023/07/06 12:26:35;;;;;;;0.50;0.50;;;13.80;99.90;;;;;;4995525;28;20811;-85
2023/07/06 12:29:07;;;;;;;1.35;0.82;;;13.80;99.90;;;;;;5001738;28;20202;-86
2023/07/06 12:31:40;;;;;;;0.52;0.50;;;13.70;99.90;;;;;;5006772;28;20198;-84
2023/07/06 12:34:11;;;;;;;0.85;0.63;;;13.80;99.90;;;;;;4995542;28;20240;-86
2023/07/06 12:36:44;;;;;;;0.55;0.50;;;13.80;99.90;;;;;;5010893;28;20210;-85
2023/07/06 12:39:19;;;;;;;0.40;0.40;;;13.80;99.90;;;;;;5006253;28;20195;-85
2023/07/06 12:41:53;;;;;;;0.80;0.50;;;13.80;99.90;;;;;;5006389;28;20217;-85
2023/07/06 12:44:27;;;;;;;2.15;0.60;;;13.80;99.90;;;;;;4993859;28;20193;-85
2023/07/06 12:47:03;;;;;;;0.98;0.82;;;13.80;99.90;;;;;;5002497;28;20209;-86
2023/07/06 12:49:45;;;;;;;0.40;0.40;;;13.80;99.90;;;;;;4995597;28;20202;-86
2023/07/06 12:52:19;;;;;;;0.70;0.70;;;13.70;99.90;;;;;;5007552;28;20225;-85
2023/07/06 12:54:52;;;;;;;0.70;0.70;;;13.80;99.90;;;;;;5005406;28;20725;-85
2023/07/06 12:57:28;;;;;;;0.55;0.52;;;13.80;99.90;;;;;;5011258;28;20225;-83
2023/07/06 13:00:09;;;;;;;0.47;0.47;;;13.80;99.90;;;;;;5006622;28;20281;-83
2023/07/06 13:02:42;;;;;;;0.65;0.60;;;13.80;99.90;;;;;;5003797;28;20250;-86
2023/07/06 13:05:21;;;;;;;0.40;0.30;;;13.80;99.90;;;;;;4991890;28;20576;-85
2023/07/06 13:07:56;;;;;;;0.60;0.60;;;13.70;99.90;;;;;;4996295;28;20201;-87
2023/07/06 13:10:29;;;;;;;0.55;0.40;;;13.70;99.90;;;;;;5010371;28;20205;-84
2023/07/06 13:13:01;;;;;;;0.50;0.50;;;13.80;99.90;;;;;;4991078;28;20194;-84
2023/07/06 13:15:42;;;;;;;0.47;0.47;;;13.80;99.90;;;;;;5006160;28;20687;-85
2023/07/06 13:18:19;;;;;;;2.38;0.60;;;13.80;99.90;;;;;;4993987;28;20190;-83
2023/07/06 13:20:53;;;;;;;0.60;0.50;;;13.80;99.90;;;;;;4999992;28;20608;-86
2023/07/06 13:23:28;;;;;;;0.40;0.40;;;13.80;99.90;;;;;;5002303;28;20632;-84
2023/07/06 13:25:59;;;;;;;0.98;0.47;;;13.80;99.90;;;;;;5010115;28;20212;-85